createdAt,value
2023-04-25T00:00:16.562Z,88.91
2023-04-25T00:02:43.964Z,88.54
2023-04-25T00:05:11.498Z,88.96
2023-04-25T00:07:38.473Z,87.63
2023-04-25T00:10:06.286Z,86.82
2023-04-25T00:12:34.712Z,87.95
2023-04-25T00:15:01.553Z,88.54
2023-04-25T00:17:29.010Z,90.64
2023-04-25T00:19:55.926Z,90.79
2023-04-25T00:22:22.856Z,90.29
2023-04-25T00:24:49.772Z,90.77
2023-04-25T00:27:16.780Z,91.89
2023-04-25T00:29:43.661Z,91.95
2023-04-25T00:32:11.028Z,92.25
2023-04-25T00:34:37.858Z,93.21
2023-04-25T00:37:04.826Z,92.51
2023-04-25T00:39:31.712Z,91.97
2023-04-25T00:41:59.277Z,91.80
2023-04-25T00:44:27.909Z,93.88
2023-04-25T00:46:55.797Z,94.09
2023-04-25T00:49:22.680Z,93.03
2023-04-25T00:51:49.997Z,95.39
2023-04-25T00:54:17.993Z,96.26
2023-04-25T00:56:46.465Z,95.22
2023-04-25T00:59:14.202Z,92.89
2023-04-25T01:01:41.484Z,92.55
2023-04-25T01:04:08.618Z,94.05
2023-04-25T01:06:35.635Z,93.71
2023-04-25T01:09:03.969Z,95.11
2023-04-25T01:11:30.966Z,95.46
2023-04-25T01:13:57.893Z,95.25
2023-04-25T01:16:27.983Z,93.48
2023-04-25T01:18:56.198Z,92.49
2023-04-25T01:21:23.202Z,93.65
2023-04-25T01:23:50.389Z,93.74
2023-04-25T01:26:17.775Z,94.28
2023-04-25T01:28:44.639Z,95.10
2023-04-25T01:31:13.270Z,94.13
2023-04-25T01:33:40.438Z,94.82
2023-04-25T01:36:07.860Z,97.11
2023-04-25T01:38:35.004Z,95.95
2023-04-25T01:41:01.938Z,95.73
2023-04-25T01:43:28.961Z,96.77
2023-04-25T01:45:56.072Z,97.17
2023-04-25T01:48:22.946Z,97.50
2023-04-25T01:50:49.929Z,96.83
2023-04-25T01:53:16.880Z,96.61
2023-04-25T01:55:43.857Z,97.09
2023-04-25T01:58:11.093Z,95.39
2023-04-25T02:00:42.051Z,95.44
2023-04-25T02:03:10.050Z,95.83
2023-04-25T02:05:39.667Z,94.42
2023-04-25T02:08:09.609Z,96.21
2023-04-25T02:10:37.326Z,98.21
2023-04-25T02:13:06.387Z,97.27
2023-04-25T02:15:33.466Z,97.29
2023-04-25T02:18:01.526Z,99.69
2023-04-25T02:20:31.275Z,99.75
2023-04-25T02:22:58.205Z,100.00
2023-04-25T02:25:25.509Z,99.70
2023-04-25T02:27:52.688Z,99.72
2023-04-25T02:30:19.635Z,100.00
2023-04-25T02:32:47.016Z,99.74
2023-04-25T02:35:14.343Z,100.00
2023-04-25T02:37:41.886Z,100.00
2023-04-25T02:40:09.743Z,100.00
2023-04-25T02:42:37.232Z,100.00
2023-04-25T02:45:04.784Z,100.00
2023-04-25T02:47:32.132Z,100.00
2023-04-25T02:49:59.423Z,100.00
2023-04-25T02:52:26.586Z,100.00
2023-04-25T02:54:53.575Z,100.00
2023-04-25T02:57:20.542Z,100.00
2023-04-25T02:59:47.384Z,100.00
2023-04-25T03:02:14.293Z,100.00
2023-04-25T03:04:41.424Z,100.00
2023-04-25T03:07:08.447Z,100.00
2023-04-25T03:09:35.923Z,100.00
2023-04-25T03:12:02.853Z,100.00
2023-04-25T03:14:29.745Z,100.00
2023-04-25T03:16:56.743Z,100.00
2023-04-25T03:19:23.762Z,100.00
2023-04-25T03:21:50.725Z,100.00
2023-04-25T03:24:17.549Z,100.00
2023-04-25T03:26:44.431Z,100.00
2023-04-25T03:29:11.311Z,100.00
2023-04-25T03:31:38.208Z,100.00
2023-04-25T03:34:05.075Z,100.00
2023-04-25T03:36:32.007Z,100.00
2023-04-25T03:38:58.911Z,100.00
2023-04-25T03:41:26.281Z,99.71
2023-04-25T03:43:53.323Z,99.55
2023-04-25T03:46:20.376Z,100.00
2023-04-25T03:48:47.292Z,100.00
2023-04-25T03:51:14.147Z,100.00
2023-04-25T03:53:41.065Z,100.00
2023-04-25T03:56:08.155Z,100.00
2023-04-25T03:58:35.033Z,100.00
2023-04-25T04:01:04.295Z,100.00
2023-04-25T04:03:31.512Z,100.00
2023-04-25T04:05:58.579Z,100.00
2023-04-25T04:08:25.460Z,100.00
2023-04-25T04:10:52.392Z,100.00
2023-04-25T04:13:19.280Z,100.00
2023-04-25T04:15:49.400Z,100.00
2023-04-25T04:18:16.331Z,100.00
2023-04-25T04:20:43.146Z,100.00
2023-04-25T04:23:10.001Z,100.00
2023-04-25T04:25:37.173Z,100.00
2023-04-25T04:28:04.292Z,100.00
2023-04-25T04:30:32.242Z,100.00
2023-04-25T04:32:59.380Z,100.00
2023-04-25T04:35:26.518Z,100.00
2023-04-25T04:37:53.377Z,100.00
2023-04-25T04:40:21.798Z,100.00
2023-04-25T04:42:49.356Z,100.00
2023-04-25T04:45:17.446Z,100.00
2023-04-25T04:47:44.374Z,100.00
2023-04-25T04:50:12.071Z,100.00
2023-04-25T04:52:39.917Z,100.00
2023-04-25T04:55:07.585Z,100.00
2023-04-25T04:57:34.613Z,100.00
2023-04-25T05:00:02.383Z,100.00
2023-04-25T05:02:29.413Z,100.00
2023-04-25T05:04:57.930Z,100.00
2023-04-25T05:07:24.947Z,100.00
2023-04-25T05:09:51.870Z,100.00
2023-04-25T05:12:18.783Z,100.00
2023-04-25T05:14:45.719Z,100.00
2023-04-25T05:17:12.628Z,100.00
2023-04-25T05:19:40.619Z,100.00
2023-04-25T05:22:07.556Z,100.00
2023-04-25T05:24:34.560Z,100.00
2023-04-25T05:27:01.481Z,100.00
2023-04-25T05:29:28.341Z,100.00
2023-04-25T05:31:55.498Z,100.00
2023-04-25T05:34:22.461Z,100.00
2023-04-25T05:36:50.021Z,100.00
2023-04-25T05:39:20.506Z,100.00
2023-04-25T05:41:47.443Z,100.00
2023-04-25T05:44:14.353Z,100.00
2023-04-25T05:46:41.311Z,100.00
2023-04-25T05:49:08.137Z,100.00
2023-04-25T05:51:35.014Z,100.00
2023-04-25T05:54:01.911Z,100.00
2023-04-25T05:56:28.758Z,100.00
2023-04-25T05:58:56.316Z,100.00
2023-04-25T06:01:24.572Z,100.00
2023-04-25T06:03:53.132Z,100.00
2023-04-25T06:06:20.428Z,100.00
2023-04-25T06:08:47.415Z,100.00
2023-04-25T06:11:14.352Z,100.00
2023-04-25T06:13:43.837Z,100.00
2023-04-25T06:16:10.824Z,100.00
2023-04-25T06:18:37.731Z,100.00
2023-04-25T06:21:04.892Z,100.00
2023-04-25T06:23:31.780Z,100.00
2023-04-25T06:25:58.764Z,100.00
2023-04-25T06:28:25.717Z,100.00
2023-04-25T06:30:52.754Z,100.00
2023-04-25T06:33:19.674Z,100.00
2023-04-25T06:35:46.885Z,100.00
2023-04-25T06:38:14.172Z,100.00
2023-04-25T06:40:41.211Z,100.00
2023-04-25T06:43:08.021Z,100.00
2023-04-25T06:45:34.945Z,100.00
2023-04-25T06:48:01.998Z,100.00
2023-04-25T06:50:29.081Z,100.00
2023-04-25T06:52:56.122Z,100.00
2023-04-25T06:55:22.955Z,99.48
2023-04-25T06:57:49.822Z,98.97
2023-04-25T07:00:17.342Z,99.53
2023-04-25T07:02:44.918Z,98.26
2023-04-25T07:05:11.960Z,96.57
2023-04-25T07:07:38.888Z,95.54
2023-04-25T07:10:06.730Z,94.52
2023-04-25T07:12:33.775Z,94.68
2023-04-25T07:15:00.678Z,94.49
2023-04-25T07:17:27.553Z,94.03
2023-04-25T07:19:54.435Z,92.99
2023-04-25T07:22:21.342Z,94.32
2023-04-25T07:24:50.009Z,95.49
2023-04-25T07:27:17.041Z,94.57
2023-04-25T07:29:43.898Z,93.34
2023-04-25T07:32:13.454Z,93.06
2023-04-25T07:34:40.666Z,93.29
2023-04-25T07:37:07.657Z,95.01
2023-04-25T07:39:34.568Z,94.22
2023-04-25T07:42:01.584Z,93.43
2023-04-25T07:44:28.540Z,93.98
2023-04-25T07:46:55.509Z,92.33
2023-04-25T07:49:22.353Z,93.47
2023-04-25T07:51:49.172Z,94.46
2023-04-25T07:54:17.168Z,92.91
2023-04-25T07:56:52.196Z,95.30
2023-04-25T07:59:20.795Z,96.21
2023-04-25T08:01:47.699Z,95.19
2023-04-25T08:04:14.895Z,93.20
2023-04-25T08:06:41.996Z,96.22
2023-04-25T08:09:10.560Z,94.93
2023-04-25T08:11:38.239Z,92.34
2023-04-25T08:14:05.147Z,93.04
2023-04-25T08:16:32.233Z,93.89
2023-04-25T08:19:00.836Z,95.98
2023-04-25T08:21:28.791Z,96.77
2023-04-25T08:23:55.796Z,94.81
2023-04-25T08:26:22.664Z,94.10
2023-04-25T08:28:49.761Z,92.34
2023-04-25T08:31:16.966Z,92.04
2023-04-25T08:33:44.345Z,92.77
2023-04-25T08:36:11.215Z,92.23
2023-04-25T08:38:38.334Z,91.71
2023-04-25T08:41:06.915Z,90.42
2023-04-25T08:43:34.673Z,91.24
2023-04-25T08:46:02.806Z,93.32
2023-04-25T08:48:32.721Z,93.48
2023-04-25T08:50:59.720Z,91.35
2023-04-25T08:53:36.275Z,94.38
2023-04-25T08:56:03.804Z,94.41
2023-04-25T08:58:31.121Z,94.06
2023-04-25T09:00:58.083Z,96.45
2023-04-25T09:03:25.201Z,96.45
2023-04-25T09:05:52.817Z,95.76
2023-04-25T09:08:19.727Z,96.36
2023-04-25T09:10:46.715Z,96.44
2023-04-25T09:13:16.304Z,96.78
2023-04-25T09:15:53.680Z,96.60
2023-04-25T09:18:30.848Z,96.18
2023-04-25T09:21:14.362Z,97.01
2023-04-25T09:23:46.916Z,96.06
2023-04-25T09:26:22.142Z,93.27
2023-04-25T09:28:49.194Z,95.23
2023-04-25T09:31:26.358Z,98.69
2023-04-25T09:34:04.750Z,97.70
2023-04-25T09:36:32.281Z,97.26
2023-04-25T09:39:02.404Z,95.26
2023-04-25T09:41:29.384Z,96.48
2023-04-25T09:44:00.647Z,96.10
2023-04-25T09:46:37.642Z,95.58
2023-04-25T09:49:09.475Z,97.58
2023-04-25T09:51:36.402Z,97.22
2023-04-25T09:54:03.285Z,96.68
2023-04-25T09:56:37.176Z,95.38
2023-04-25T09:59:04.505Z,95.65
2023-04-25T10:01:32.013Z,94.31
2023-04-25T10:04:00.401Z,93.66
2023-04-25T10:06:29.494Z,92.84
2023-04-25T10:08:57.423Z,94.81
2023-04-25T10:11:26.315Z,93.22
2023-04-25T10:13:54.131Z,92.93
2023-04-25T10:16:22.385Z,91.67
2023-04-25T10:18:49.973Z,94.23
2023-04-25T10:21:17.650Z,94.13
2023-04-25T10:23:46.639Z,95.40
2023-04-25T10:26:14.630Z,93.70
2023-04-25T10:28:58.912Z,91.71
2023-04-25T10:31:26.142Z,95.13
2023-04-25T10:33:53.559Z,93.37
2023-04-25T10:36:23.691Z,95.14
2023-04-25T10:38:52.197Z,93.76
2023-04-25T10:41:21.634Z,94.25
2023-04-25T10:43:50.195Z,91.68
2023-04-25T10:46:26.100Z,93.28
2023-04-25T10:48:57.603Z,98.07
2023-04-25T10:51:25.615Z,95.93
2023-04-25T10:54:19.144Z,94.67
2023-04-25T10:56:46.068Z,94.10
2023-04-25T10:59:20.812Z,92.16
2023-04-25T11:01:50.433Z,91.82
2023-04-25T11:04:35.824Z,92.09
2023-04-25T11:07:24.832Z,89.58
2023-04-25T11:09:51.747Z,89.89
2023-04-25T11:12:19.177Z,90.00
2023-04-25T11:14:46.880Z,88.21
2023-04-25T11:17:13.798Z,88.07
2023-04-25T11:19:40.691Z,87.61
2023-04-25T11:22:09.015Z,86.61
2023-04-25T11:24:37.773Z,86.49
2023-04-25T11:27:05.765Z,87.34
2023-04-25T11:29:35.151Z,84.62
2023-04-25T11:32:03.456Z,84.32
2023-04-25T11:34:32.622Z,80.40
2023-04-25T11:37:00.984Z,83.70
2023-04-25T11:39:29.457Z,81.11
2023-04-25T11:41:56.803Z,80.67
2023-04-25T11:44:24.193Z,77.95
2023-04-25T11:46:51.130Z,80.44
2023-04-25T11:49:19.593Z,81.27
2023-04-25T11:51:49.364Z,80.26
2023-04-25T11:54:17.050Z,80.90
2023-04-25T11:56:45.758Z,83.97
2023-04-25T11:59:14.245Z,85.88
2023-04-25T12:01:50.316Z,83.08
2023-04-25T12:04:19.914Z,83.23
2023-04-25T12:06:49.280Z,83.12
2023-04-25T12:09:22.764Z,83.37
2023-04-25T12:11:55.071Z,80.12
2023-04-25T12:14:31.144Z,80.62
2023-04-25T12:17:00.914Z,78.84
2023-04-25T12:19:35.328Z,79.92
2023-04-25T12:22:06.817Z,79.00
2023-04-25T12:24:38.942Z,78.23
2023-04-25T12:27:09.587Z,78.99
2023-04-25T12:29:48.747Z,77.13
2023-04-25T12:32:17.857Z,77.97
2023-04-25T12:34:44.853Z,77.93
2023-04-25T12:37:12.480Z,77.88
2023-04-25T12:39:39.335Z,79.32
2023-04-25T12:42:09.944Z,77.24
2023-04-25T12:44:36.969Z,78.96
2023-04-25T12:47:04.760Z,76.04
2023-04-25T12:49:31.798Z,77.71
2023-04-25T12:51:59.012Z,74.02
2023-04-25T12:54:26.738Z,74.03
2023-04-25T12:56:53.868Z,73.75
2023-04-25T12:59:21.702Z,74.02
2023-04-25T13:01:48.885Z,75.19
2023-04-25T13:04:16.451Z,74.27
2023-04-25T13:06:43.707Z,73.57
2023-04-25T13:09:10.733Z,73.68
2023-04-25T13:11:37.688Z,73.96
2023-04-25T13:14:06.043Z,73.59
2023-04-25T13:16:33.257Z,73.97
2023-04-25T13:19:00.245Z,76.28
2023-04-25T13:21:28.182Z,75.75
2023-04-25T13:23:55.317Z,76.01
2023-04-25T13:26:22.455Z,74.63
2023-04-25T13:28:49.298Z,75.65
2023-04-25T13:31:16.163Z,75.76
2023-04-25T13:33:43.052Z,75.36
2023-04-25T13:36:09.936Z,74.51
2023-04-25T13:38:36.818Z,77.11
2023-04-25T13:41:03.717Z,76.78
2023-04-25T13:43:30.781Z,78.49
2023-04-25T13:45:57.682Z,82.33
2023-04-25T13:48:25.836Z,81.45
2023-04-25T13:50:52.776Z,80.34
2023-04-25T13:53:19.740Z,78.85
2023-04-25T13:55:47.306Z,79.91
2023-04-25T13:58:14.261Z,78.09
2023-04-25T14:00:43.504Z,77.04
2023-04-25T14:03:10.817Z,76.42
2023-04-25T14:05:39.455Z,76.15
2023-04-25T14:08:11.161Z,73.03
2023-04-25T14:10:39.039Z,75.90
2023-04-25T14:13:07.828Z,77.87
2023-04-25T14:15:36.234Z,77.44
2023-04-25T14:18:03.481Z,76.48
2023-04-25T14:20:31.242Z,74.58
2023-04-25T14:22:59.411Z,73.89
2023-04-25T14:25:26.626Z,76.00
2023-04-25T14:27:54.041Z,78.46
2023-04-25T14:30:22.729Z,82.15
2023-04-25T14:32:52.447Z,83.71
2023-04-25T14:35:19.629Z,82.44
2023-04-25T14:37:46.770Z,82.01
2023-04-25T14:40:16.472Z,82.60
2023-04-25T14:42:43.679Z,84.31
2023-04-25T14:45:11.148Z,86.32
2023-04-25T14:47:38.898Z,88.61
2023-04-25T14:50:07.776Z,90.06
2023-04-25T14:52:34.647Z,86.72
2023-04-25T14:55:05.884Z,80.81
2023-04-25T14:57:34.359Z,81.70
2023-04-25T15:00:02.070Z,82.53
2023-04-25T15:02:29.869Z,80.03
2023-04-25T15:04:59.879Z,81.58
2023-04-25T15:07:27.009Z,79.87
2023-04-25T15:09:55.086Z,77.13
2023-04-25T15:12:21.966Z,78.78
2023-04-25T15:14:48.843Z,78.14
2023-04-25T15:17:16.107Z,77.75
2023-04-25T15:19:43.054Z,78.36
2023-04-25T15:22:10.051Z,77.80
2023-04-25T15:24:36.933Z,77.06
2023-04-25T15:27:05.631Z,80.05
2023-04-25T15:29:32.507Z,77.23
2023-04-25T15:31:59.375Z,76.07
2023-04-25T15:34:26.354Z,78.83
2023-04-25T15:36:53.222Z,77.05
2023-04-25T15:39:20.081Z,75.45
2023-04-25T15:41:48.033Z,75.47
2023-04-25T15:44:14.962Z,76.88
2023-04-25T15:46:41.824Z,74.23
2023-04-25T15:49:08.871Z,74.47
2023-04-25T15:51:36.088Z,76.93
2023-04-25T15:54:04.220Z,75.45
2023-04-25T15:56:31.082Z,75.24
2023-04-25T15:58:57.898Z,76.32
2023-04-25T16:01:26.409Z,74.45
2023-04-25T16:03:53.851Z,73.48
2023-04-25T16:06:20.998Z,73.16
2023-04-25T16:08:47.831Z,76.50
2023-04-25T16:11:15.010Z,73.79
2023-04-25T16:13:42.123Z,73.64
2023-04-25T16:16:09.067Z,74.41
2023-04-25T16:18:36.052Z,74.81
2023-04-25T16:21:03.936Z,74.16
2023-04-25T16:23:31.639Z,73.11
2023-04-25T16:25:58.493Z,73.40
2023-04-25T16:28:26.107Z,72.29
2023-04-25T16:30:52.948Z,72.16
2023-04-25T16:33:19.819Z,73.46
2023-04-25T16:35:46.651Z,72.99
2023-04-25T16:38:13.506Z,71.91
2023-04-25T16:40:40.379Z,73.27
2023-04-25T16:43:07.241Z,72.65
2023-04-25T16:45:34.127Z,71.49
2023-04-25T16:48:01.005Z,71.63
2023-04-25T16:50:27.903Z,70.73
2023-04-25T16:52:54.852Z,70.75
2023-04-25T16:55:21.747Z,70.57
2023-04-25T16:57:48.636Z,71.91
2023-04-25T17:00:16.440Z,71.49
2023-04-25T17:02:43.688Z,70.15
2023-04-25T17:05:10.878Z,70.73
2023-04-25T17:07:37.798Z,71.76
2023-04-25T17:10:05.459Z,70.89
2023-04-25T17:12:33.792Z,71.12
2023-04-25T17:15:01.446Z,70.25
2023-04-25T17:17:28.560Z,72.23
2023-04-25T17:19:55.493Z,72.22
2023-04-25T17:22:22.691Z,74.27
2023-04-25T17:24:49.845Z,71.92
2023-04-25T17:27:16.739Z,72.47
2023-04-25T17:29:43.816Z,71.92
2023-04-25T17:32:10.918Z,72.60
2023-04-25T17:34:40.297Z,72.66
2023-04-25T17:37:08.186Z,73.92
2023-04-25T17:39:35.041Z,73.40
2023-04-25T17:42:02.570Z,74.93
2023-04-25T17:44:29.415Z,75.02
2023-04-25T17:46:56.240Z,73.87
2023-04-25T17:49:23.066Z,74.47
2023-04-25T17:51:50.019Z,74.37
2023-04-25T17:54:17.011Z,75.74
2023-04-25T17:56:44.957Z,75.73
2023-04-25T17:59:11.814Z,75.43
2023-04-25T18:01:38.758Z,74.96
2023-04-25T18:04:05.978Z,76.42
2023-04-25T18:06:33.296Z,76.75
2023-04-25T18:09:00.378Z,77.18
2023-04-25T18:11:27.278Z,77.18
2023-04-25T18:13:54.351Z,78.83
2023-04-25T18:16:21.483Z,78.56
2023-04-25T18:18:55.469Z,78.50
2023-04-25T18:21:22.644Z,78.58
2023-04-25T18:23:49.550Z,78.45
2023-04-25T18:26:16.388Z,79.45
2023-04-25T18:28:43.303Z,79.73
2023-04-25T18:31:10.213Z,80.77
2023-04-25T18:33:37.113Z,80.48
2023-04-25T18:36:04.162Z,80.04
2023-04-25T18:38:35.979Z,80.02
2023-04-25T18:41:21.114Z,80.51
2023-04-25T18:43:55.799Z,81.55
2023-04-25T18:46:23.237Z,82.72
2023-04-25T18:48:53.795Z,83.41
2023-04-25T18:51:27.871Z,83.92
2023-04-25T18:53:54.850Z,83.91
2023-04-25T18:56:24.441Z,84.75
2023-04-25T18:58:55.421Z,84.97
2023-04-25T19:01:24.863Z,86.18
2023-04-25T19:03:58.670Z,86.84
2023-04-25T19:06:29.142Z,86.27
2023-04-25T19:08:57.706Z,86.36
2023-04-25T19:11:25.258Z,86.79
2023-04-25T19:13:52.875Z,87.50
2023-04-25T19:16:19.879Z,88.03
2023-04-25T19:18:47.300Z,87.75
2023-04-25T19:21:14.743Z,87.98
2023-04-25T19:23:41.886Z,89.24
2023-04-25T19:26:08.863Z,88.99
2023-04-25T19:28:35.728Z,88.90
2023-04-25T19:31:02.654Z,89.82
2023-04-25T19:33:29.644Z,89.21
2023-04-25T19:35:56.574Z,90.03
2023-04-25T19:38:23.467Z,90.80
2023-04-25T19:40:50.379Z,90.26
2023-04-25T19:43:17.753Z,89.02
2023-04-25T19:45:44.661Z,89.41
2023-04-25T19:48:12.571Z,90.92
2023-04-25T19:50:39.464Z,91.38
2023-04-25T19:53:06.283Z,92.70
2023-04-25T19:55:33.134Z,92.63
2023-04-25T19:58:00.174Z,89.81
2023-04-25T20:00:27.052Z,89.22
2023-04-25T20:02:54.033Z,89.26
2023-04-25T20:05:21.009Z,90.80
2023-04-25T20:07:47.835Z,91.45
2023-04-25T20:10:15.928Z,93.01
2023-04-25T20:12:42.880Z,92.44
2023-04-25T20:15:11.846Z,91.68
2023-04-25T20:17:42.708Z,92.97
2023-04-25T20:20:11.573Z,91.96
2023-04-25T20:22:40.607Z,92.68
2023-04-25T20:25:10.056Z,94.52
2023-04-25T20:27:40.435Z,95.19
2023-04-25T20:30:09.429Z,95.02
2023-04-25T20:32:37.305Z,95.29
2023-04-25T20:35:07.297Z,95.23
2023-04-25T20:37:34.878Z,95.57
2023-04-25T20:40:06.524Z,96.03
2023-04-25T20:42:34.403Z,96.44
2023-04-25T20:45:01.446Z,97.04
2023-04-25T20:47:29.321Z,96.00
2023-04-25T20:49:56.374Z,97.10
2023-04-25T20:52:23.969Z,97.91
2023-04-25T20:54:52.687Z,96.96
2023-04-25T20:57:19.522Z,98.26
2023-04-25T20:59:46.843Z,99.10
2023-04-25T21:02:15.819Z,100.00
2023-04-25T21:04:46.772Z,100.00
2023-04-25T21:07:13.743Z,100.00
2023-04-25T21:09:45.698Z,99.83
2023-04-25T21:12:12.636Z,99.34
2023-04-25T21:14:39.503Z,98.46
2023-04-25T21:17:06.427Z,97.67
2023-04-25T21:19:33.514Z,98.08
2023-04-25T21:22:00.533Z,98.83
2023-04-25T21:24:27.569Z,98.73
2023-04-25T21:26:54.414Z,96.38
2023-04-25T21:29:21.255Z,95.61
2023-04-25T21:31:48.447Z,96.46
2023-04-25T21:34:15.316Z,95.53
2023-04-25T21:36:42.374Z,95.46
2023-04-25T21:39:11.009Z,96.33
2023-04-25T21:41:38.169Z,95.70
2023-04-25T21:44:05.157Z,96.48
2023-04-25T21:46:32.109Z,96.95
2023-04-25T21:48:59.049Z,97.76
2023-04-25T21:51:25.924Z,97.35
2023-04-25T21:53:53.138Z,97.88
2023-04-25T21:56:19.956Z,98.50
2023-04-25T21:58:46.867Z,97.78
2023-04-25T22:01:15.979Z,98.65
2023-04-25T22:03:43.160Z,98.16
2023-04-25T22:06:10.146Z,98.69
2023-04-25T22:08:37.531Z,97.90
2023-04-25T22:11:07.369Z,96.92
2023-04-25T22:13:34.201Z,96.09
2023-04-25T22:16:01.098Z,98.00
2023-04-25T22:18:28.134Z,98.71
2023-04-25T22:20:55.019Z,99.55
2023-04-25T22:23:22.824Z,99.11
2023-04-25T22:25:49.652Z,98.72
2023-04-25T22:28:16.736Z,99.00
2023-04-25T22:30:44.096Z,100.00
2023-04-25T22:33:11.295Z,98.83
2023-04-25T22:35:38.226Z,97.73
2023-04-25T22:38:05.079Z,97.71
2023-04-25T22:40:32.025Z,98.67
2023-04-25T22:42:58.930Z,98.86
2023-04-25T22:45:25.763Z,97.75
2023-04-25T22:47:53.488Z,97.57
2023-04-25T22:50:20.679Z,96.78
2023-04-25T22:52:48.741Z,95.95
2023-04-25T22:55:15.932Z,96.87
2023-04-25T22:57:43.224Z,97.54
2023-04-25T23:00:20.369Z,98.77
2023-04-25T23:02:48.859Z,99.61
2023-04-25T23:05:15.916Z,99.43
2023-04-25T23:07:44.769Z,98.65
2023-04-25T23:10:12.536Z,98.47
2023-04-25T23:12:40.374Z,100.00
2023-04-25T23:15:08.614Z,99.93
2023-04-25T23:17:35.537Z,100.00
2023-04-25T23:20:02.423Z,100.00
2023-04-25T23:22:29.835Z,100.00
2023-04-25T23:24:56.866Z,100.00
2023-04-25T23:27:23.698Z,99.82
2023-04-25T23:29:58.091Z,100.00
2023-04-25T23:32:26.509Z,100.00
2023-04-25T23:34:53.499Z,100.00
2023-04-25T23:37:20.386Z,100.00
2023-04-25T23:39:51.003Z,100.00
2023-04-25T23:42:18.844Z,100.00
2023-04-25T23:44:45.788Z,100.00
2023-04-25T23:47:14.310Z,100.00
2023-04-25T23:49:41.528Z,100.00
2023-04-25T23:52:08.508Z,100.00
2023-04-25T23:54:35.939Z,100.00
2023-04-25T23:57:05.798Z,100.00
2023-04-25T23:59:32.838Z,100.00
